sensor_id;sensor_type;location;lat;lon;timestamp;P1;durP1;ratioP1;P2;durP2;ratioP2
61204;SDS011;47068;55.780;37.520;2022-07-29T00:03:10;4.60;;;4.30;;
61204;SDS011;47068;55.780;37.520;2022-07-29T00:05:38;4.95;;;4.50;;
61204;SDS011;47068;55.780;37.520;2022-07-29T00:08:04;4.55;;;4.15;;
61204;SDS011;47068;55.780;37.520;2022-07-29T00:10:30;5.03;;;4.32;;
61204;SDS011;47068;55.780;37.520;2022-07-29T00:12:55;4.80;;;4.40;;
61204;SDS011;47068;55.780;37.520;2022-07-29T00:15:21;5.05;;;4.30;;
61204;SDS011;47068;55.780;37.520;2022-07-29T00:17:46;4.82;;;4.43;;
61204;SDS011;47068;55.780;37.520;2022-07-29T00:20:12;4.35;;;4.05;;
61204;SDS011;47068;55.780;37.520;2022-07-29T00:22:38;4.78;;;4.18;;
61204;SDS011;47068;55.780;37.520;2022-07-29T00:25:04;4.80;;;4.40;;
61204;SDS011;47068;55.780;37.520;2022-07-29T00:27:30;4.72;;;4.30;;
61204;SDS011;47068;55.780;37.520;2022-07-29T00:29:56;6.55;;;4.05;;
61204;SDS011;47068;55.780;37.520;2022-07-29T00:32:21;4.15;;;3.80;;
61204;SDS011;47068;55.780;37.520;2022-07-29T00:34:47;7.75;;;4.18;;
61204;SDS011;47068;55.780;37.520;2022-07-29T00:37:31;4.70;;;3.78;;
61204;SDS011;47068;55.780;37.520;2022-07-29T00:39:56;6.47;;;3.92;;
61204;SDS011;47068;55.780;37.520;2022-07-29T00:42:22;4.50;;;4.20;;
61204;SDS011;47068;55.780;37.520;2022-07-29T00:44:47;4.70;;;4.30;;
61204;SDS011;47068;55.780;37.520;2022-07-29T00:47:13;5.03;;;4.55;;
61204;SDS011;47068;55.780;37.520;2022-07-29T00:49:39;5.72;;;4.47;;
61204;SDS011;47068;55.780;37.520;2022-07-29T00:52:07;4.22;;;3.92;;
61204;SDS011;47068;55.780;37.520;2022-07-29T00:54:33;4.80;;;4.40;;
61204;SDS011;47068;55.780;37.520;2022-07-29T00:57:02;4.80;;;4.40;;
61204;SDS011;47068;55.780;37.520;2022-07-29T00:59:27;4.95;;;4.30;;
61204;SDS011;47068;55.780;37.520;2022-07-29T01:01:53;4.50;;;4.13;;
61204;SDS011;47068;55.780;37.520;2022-07-29T01:06:46;5.13;;;4.30;;
61204;SDS011;47068;55.780;37.520;2022-07-29T01:09:13;6.10;;;4.05;;
61204;SDS011;47068;55.780;37.520;2022-07-29T01:11:39;4.63;;;4.32;;
61204;SDS011;47068;55.780;37.520;2022-07-29T01:14:06;4.40;;;4.00;;
61204;SDS011;47068;55.780;37.520;2022-07-29T01:16:35;5.13;;;4.13;;
61204;SDS011;47068;55.780;37.520;2022-07-29T01:19:11;4.45;;;4.10;;
61204;SDS011;47068;55.780;37.520;2022-07-29T01:21:51;4.78;;;4.30;;
61204;SDS011;47068;55.780;37.520;2022-07-29T01:29:44;4.95;;;4.50;;
61204;SDS011;47068;55.780;37.520;2022-07-29T01:32:15;5.05;;;4.45;;
61204;SDS011;47068;55.780;37.520;2022-07-29T01:37:50;4.60;;;4.20;;
61204;SDS011;47068;55.780;37.520;2022-07-29T01:40:25;4.50;;;4.10;;
61204;SDS011;47068;55.780;37.520;2022-07-29T01:42:59;5.13;;;4.10;;
61204;SDS011;47068;55.780;37.520;2022-07-29T01:45:41;4.70;;;4.20;;
61204;SDS011;47068;55.780;37.520;2022-07-29T01:48:13;5.15;;;4.30;;
61204;SDS011;47068;55.780;37.520;2022-07-29T01:50:52;4.85;;;3.85;;
61204;SDS011;47068;55.780;37.520;2022-07-29T01:53:27;4.30;;;3.90;;
61204;SDS011;47068;55.780;37.520;2022-07-29T01:55:57;3.97;;;3.67;;
61204;SDS011;47068;55.780;37.520;2022-07-29T01:58:28;6.95;;;4.05;;
61204;SDS011;47068;55.780;37.520;2022-07-29T02:00:57;3.88;;;3.58;;
61204;SDS011;47068;55.780;37.520;2022-07-29T02:03:24;5.38;;;3.78;;
61204;SDS011;47068;55.780;37.520;2022-07-29T02:05:51;5.22;;;3.90;;
61204;SDS011;47068;55.780;37.520;2022-07-29T02:08:19;8.95;;;4.13;;
61204;SDS011;47068;55.780;37.520;2022-07-29T02:10:47;4.68;;;4.28;;
61204;SDS011;47068;55.780;37.520;2022-07-29T02:13:16;6.90;;;4.22;;
61204;SDS011;47068;55.780;37.520;2022-07-29T02:15:45;5.25;;;4.20;;
61204;SDS011;47068;55.780;37.520;2022-07-29T02:18:18;4.63;;;4.22;;
61204;SDS011;47068;55.780;37.520;2022-07-29T02:20:49;4.45;;;4.10;;
61204;SDS011;47068;55.780;37.520;2022-07-29T02:23:20;4.88;;;4.50;;
61204;SDS011;47068;55.780;37.520;2022-07-29T02:25:49;4.85;;;4.40;;
61204;SDS011;47068;55.780;37.520;2022-07-29T02:28:17;4.80;;;4.40;;
61204;SDS011;47068;55.780;37.520;2022-07-29T02:30:45;4.72;;;4.32;;
61204;SDS011;47068;55.780;37.520;2022-07-29T02:33:12;5.85;;;4.93;;
61204;SDS011;47068;55.780;37.520;2022-07-29T02:35:39;6.32;;;4.30;;
61204;SDS011;47068;55.780;37.520;2022-07-29T02:38:06;4.13;;;3.72;;
61204;SDS011;47068;55.780;37.520;2022-07-29T02:40:53;5.63;;;3.95;;
61204;SDS011;47068;55.780;37.520;2022-07-29T02:43:20;7.07;;;4.30;;
61204;SDS011;47068;55.780;37.520;2022-07-29T02:45:47;4.25;;;3.83;;
61204;SDS011;47068;55.780;37.520;2022-07-29T02:48:18;5.07;;;4.15;;
61204;SDS011;47068;55.780;37.520;2022-07-29T02:50:49;10.05;;;4.15;;
61204;SDS011;47068;55.780;37.520;2022-07-29T02:53:20;4.28;;;3.88;;
61204;SDS011;47068;55.780;37.520;2022-07-29T02:55:55;4.47;;;3.72;;
61204;SDS011;47068;55.780;37.520;2022-07-29T02:58:40;4.80;;;4.30;;
61204;SDS011;47068;55.780;37.520;2022-07-29T03:01:11;4.43;;;4.03;;
61204;SDS011;47068;55.780;37.520;2022-07-29T03:03:44;6.25;;;4.43;;
61204;SDS011;47068;55.780;37.520;2022-07-29T03:06:12;6.03;;;4.47;;
61204;SDS011;47068;55.780;37.520;2022-07-29T03:08:40;9.63;;;4.72;;
61204;SDS011;47068;55.780;37.520;2022-07-29T03:11:05;5.32;;;4.57;;
61204;SDS011;47068;55.780;37.520;2022-07-29T03:13:33;6.70;;;5.13;;
61204;SDS011;47068;55.780;37.520;2022-07-29T03:16:00;5.90;;;5.30;;
61204;SDS011;47068;55.780;37.520;2022-07-29T03:18:26;5.10;;;4.70;;
61204;SDS011;47068;55.780;37.520;2022-07-29T03:20:52;5.53;;;5.07;;
61204;SDS011;47068;55.780;37.520;2022-07-29T03:23:18;5.45;;;5.00;;
61204;SDS011;47068;55.780;37.520;2022-07-29T03:25:46;5.00;;;4.60;;
61204;SDS011;47068;55.780;37.520;2022-07-29T03:28:12;5.20;;;4.70;;
61204;SDS011;47068;55.780;37.520;2022-07-29T03:30:37;7.25;;;5.78;;
61204;SDS011;47068;55.780;37.520;2022-07-29T03:33:02;5.88;;;4.78;;
61204;SDS011;47068;55.780;37.520;2022-07-29T03:35:28;5.03;;;4.60;;
61204;SDS011;47068;55.780;37.520;2022-07-29T03:37:56;6.65;;;4.90;;
61204;SDS011;47068;55.780;37.520;2022-07-29T03:40:26;5.82;;;5.40;;
61204;SDS011;47068;55.780;37.520;2022-07-29T03:42:56;5.13;;;4.63;;
61204;SDS011;47068;55.780;37.520;2022-07-29T03:45:24;6.03;;;3.75;;
61204;SDS011;47068;55.780;37.520;2022-07-29T03:47:52;5.05;;;3.78;;
61204;SDS011;47068;55.780;37.520;2022-07-29T03:50:22;6.43;;;4.50;;
61204;SDS011;47068;55.780;37.520;2022-07-29T03:55:13;5.00;;;4.70;;
61204;SDS011;47068;55.780;37.520;2022-07-29T03:57:40;5.43;;;4.75;;
61204;SDS011;47068;55.780;37.520;2022-07-29T04:00:07;4.88;;;4.43;;
61204;SDS011;47068;55.780;37.520;2022-07-29T04:02:33;5.10;;;4.80;;
61204;SDS011;47068;55.780;37.520;2022-07-29T04:05:00;6.13;;;5.43;;
61204;SDS011;47068;55.780;37.520;2022-07-29T04:07:25;5.07;;;4.60;;
61204;SDS011;47068;55.780;37.520;2022-07-29T04:12:16;6.25;;;5.65;;
61204;SDS011;47068;55.780;37.520;2022-07-29T04:17:07;5.22;;;4.82;;
61204;SDS011;47068;55.780;37.520;2022-07-29T04:19:32;6.20;;;5.70;;
61204;SDS011;47068;55.780;37.520;2022-07-29T04:21:58;7.13;;;5.68;;
61204;SDS011;47068;55.780;37.520;2022-07-29T04:26:50;6.30;;;5.80;;
61204;SDS011;47068;55.780;37.520;2022-07-29T04:29:15;7.45;;;5.50;;
61204;SDS011;47068;55.780;37.520;2022-07-29T04:31:41;5.65;;;5.15;;
61204;SDS011;47068;55.780;37.520;2022-07-29T04:34:07;5.80;;;5.25;;
61204;SDS011;47068;55.780;37.520;2022-07-29T04:36:34;6.35;;;5.85;;
61204;SDS011;47068;55.780;37.520;2022-07-29T04:38:59;6.03;;;5.38;;
61204;SDS011;47068;55.780;37.520;2022-07-29T04:41:26;5.40;;;4.70;;
61204;SDS011;47068;55.780;37.520;2022-07-29T04:44:02;5.18;;;4.78;;
61204;SDS011;47068;55.780;37.520;2022-07-29T04:46:30;5.72;;;5.22;;
61204;SDS011;47068;55.780;37.520;2022-07-29T04:48:55;5.13;;;4.72;;
61204;SDS011;47068;55.780;37.520;2022-07-29T04:53:46;4.93;;;4.53;;
61204;SDS011;47068;55.780;37.520;2022-07-29T04:58:37;5.55;;;3.97;;
61204;SDS011;47068;55.780;37.520;2022-07-29T05:03:28;4.13;;;3.78;;
61204;SDS011;47068;55.780;37.520;2022-07-29T05:08:19;4.60;;;4.20;;
61204;SDS011;47068;55.780;37.520;2022-07-29T05:13:10;5.65;;;4.30;;
61204;SDS011;47068;55.780;37.520;2022-07-29T05:15:36;5.05;;;3.67;;
61204;SDS011;47068;55.780;37.520;2022-07-29T05:18:04;4.15;;;3.85;;
61204;SDS011;47068;55.780;37.520;2022-07-29T05:20:30;4.43;;;4.03;;
61204;SDS011;47068;55.780;37.520;2022-07-29T05:22:59;4.80;;;4.40;;
61204;SDS011;47068;55.780;37.520;2022-07-29T05:25:26;4.82;;;4.40;;
61204;SDS011;47068;55.780;37.520;2022-07-29T05:27:52;4.25;;;3.88;;
61204;SDS011;47068;55.780;37.520;2022-07-29T05:30:18;5.88;;;5.10;;
61204;SDS011;47068;55.780;37.520;2022-07-29T05:32:44;5.47;;;5.07;;
61204;SDS011;47068;55.780;37.520;2022-07-29T05:35:10;5.97;;;5.25;;
61204;SDS011;47068;55.780;37.520;2022-07-29T05:37:36;5.78;;;5.30;;
61204;SDS011;47068;55.780;37.520;2022-07-29T05:40:02;5.75;;;5.07;;
61204;SDS011;47068;55.780;37.520;2022-07-29T05:42:28;5.15;;;4.75;;
61204;SDS011;47068;55.780;37.520;2022-07-29T05:44:54;6.13;;;4.40;;
61204;SDS011;47068;55.780;37.520;2022-07-29T05:47:20;4.40;;;4.00;;
61204;SDS011;47068;55.780;37.520;2022-07-29T05:49:45;5.80;;;4.50;;
61204;SDS011;47068;55.780;37.520;2022-07-29T05:52:11;4.70;;;4.30;;
61204;SDS011;47068;55.780;37.520;2022-07-29T05:54:38;4.80;;;4.38;;
61204;SDS011;47068;55.780;37.520;2022-07-29T05:57:04;7.68;;;4.00;;
61204;SDS011;47068;55.780;37.520;2022-07-29T05:59:30;4.72;;;4.40;;
61204;SDS011;47068;55.780;37.520;2022-07-29T06:01:56;4.82;;;4.43;;
61204;SDS011;47068;55.780;37.520;2022-07-29T06:04:22;6.53;;;4.85;;
61204;SDS011;47068;55.780;37.520;2022-07-29T06:06:47;5.38;;;4.88;;
61204;SDS011;47068;55.780;37.520;2022-07-29T06:09:13;5.50;;;5.00;;
61204;SDS011;47068;55.780;37.520;2022-07-29T06:11:39;5.38;;;4.97;;
61204;SDS011;47068;55.780;37.520;2022-07-29T06:14:05;5.25;;;4.85;;
61204;SDS011;47068;55.780;37.520;2022-07-29T06:16:31;4.88;;;4.47;;
61204;SDS011;47068;55.780;37.520;2022-07-29T06:18:56;4.75;;;4.35;;
61204;SDS011;47068;55.780;37.520;2022-07-29T06:21:21;6.75;;;6.20;;
61204;SDS011;47068;55.780;37.520;2022-07-29T06:23:47;5.72;;;5.20;;
61204;SDS011;47068;55.780;37.520;2022-07-29T06:26:12;7.18;;;5.00;;
61204;SDS011;47068;55.780;37.520;2022-07-29T06:28:38;6.30;;;5.80;;
61204;SDS011;47068;55.780;37.520;2022-07-29T06:31:04;8.82;;;4.45;;
61204;SDS011;47068;55.780;37.520;2022-07-29T06:33:30;6.05;;;5.22;;
61204;SDS011;47068;55.780;37.520;2022-07-29T06:35:58;8.10;;;5.85;;
61204;SDS011;47068;55.780;37.520;2022-07-29T06:38:24;6.78;;;5.85;;
61204;SDS011;47068;55.780;37.520;2022-07-29T06:40:50;7.18;;;6.00;;
61204;SDS011;47068;55.780;37.520;2022-07-29T06:43:33;6.60;;;6.20;;
61204;SDS011;47068;55.780;37.520;2022-07-29T06:46:07;6.40;;;6.00;;
61204;SDS011;47068;55.780;37.520;2022-07-29T06:48:37;10.15;;;6.47;;
61204;SDS011;47068;55.780;37.520;2022-07-29T06:51:03;7.03;;;6.40;;
61204;SDS011;47068;55.780;37.520;2022-07-29T06:53:30;7.32;;;6.82;;
61204;SDS011;47068;55.780;37.520;2022-07-29T06:55:57;6.50;;;6.10;;
61204;SDS011;47068;55.780;37.520;2022-07-29T06:58:24;7.55;;;7.05;;
61204;SDS011;47068;55.780;37.520;2022-07-29T07:00:50;7.72;;;7.22;;
61204;SDS011;47068;55.780;37.520;2022-07-29T07:03:16;7.60;;;7.10;;
61204;SDS011;47068;55.780;37.520;2022-07-29T07:05:43;8.15;;;7.45;;
61204;SDS011;47068;55.780;37.520;2022-07-29T07:08:09;7.18;;;6.72;;
61204;SDS011;47068;55.780;37.520;2022-07-29T07:10:35;7.10;;;6.60;;
61204;SDS011;47068;55.780;37.520;2022-07-29T07:13:02;6.15;;;5.65;;
61204;SDS011;47068;55.780;37.520;2022-07-29T07:15:29;11.10;;;8.20;;
61204;SDS011;47068;55.780;37.520;2022-07-29T07:17:54;8.00;;;7.20;;
61204;SDS011;47068;55.780;37.520;2022-07-29T07:20:20;7.30;;;6.80;;
61204;SDS011;47068;55.780;37.520;2022-07-29T07:22:46;7.22;;;6.82;;
61204;SDS011;47068;55.780;37.520;2022-07-29T07:25:11;7.50;;;7.10;;
61204;SDS011;47068;55.780;37.520;2022-07-29T07:27:37;8.00;;;7.50;;
61204;SDS011;47068;55.780;37.520;2022-07-29T07:30:04;6.65;;;6.15;;
61204;SDS011;47068;55.780;37.520;2022-07-29T07:32:33;6.53;;;5.82;;
61204;SDS011;47068;55.780;37.520;2022-07-29T07:34:59;9.88;;;5.68;;
61204;SDS011;47068;55.780;37.520;2022-07-29T07:37:25;6.43;;;6.03;;
61204;SDS011;47068;55.780;37.520;2022-07-29T07:39:51;7.07;;;6.50;;
61204;SDS011;47068;55.780;37.520;2022-07-29T07:42:18;6.50;;;5.85;;
61204;SDS011;47068;55.780;37.520;2022-07-29T07:44:43;6.55;;;5.72;;
61204;SDS011;47068;55.780;37.520;2022-07-29T07:47:10;6.47;;;5.88;;
61204;SDS011;47068;55.780;37.520;2022-07-29T07:49:39;6.97;;;6.50;;
61204;SDS011;47068;55.780;37.520;2022-07-29T07:52:05;6.00;;;5.60;;
61204;SDS011;47068;55.780;37.520;2022-07-29T07:54:30;6.78;;;6.15;;
61204;SDS011;47068;55.780;37.520;2022-07-29T07:56:56;5.70;;;5.30;;
61204;SDS011;47068;55.780;37.520;2022-07-29T07:59:22;6.10;;;5.57;;
61204;SDS011;47068;55.780;37.520;2022-07-29T08:01:47;6.32;;;5.82;;
61204;SDS011;47068;55.780;37.520;2022-07-29T08:04:14;6.93;;;6.45;;
61204;SDS011;47068;55.780;37.520;2022-07-29T08:06:39;7.03;;;6.53;;
61204;SDS011;47068;55.780;37.520;2022-07-29T08:09:05;6.97;;;6.47;;
61204;SDS011;47068;55.780;37.520;2022-07-29T08:11:31;7.20;;;6.80;;
61204;SDS011;47068;55.780;37.520;2022-07-29T08:13:57;7.05;;;6.45;;
61204;SDS011;47068;55.780;37.520;2022-07-29T08:16:23;7.45;;;6.72;;
61204;SDS011;47068;55.780;37.520;2022-07-29T08:18:50;6.47;;;5.80;;
61204;SDS011;47068;55.780;37.520;2022-07-29T08:21:16;6.88;;;6.22;;
61204;SDS011;47068;55.780;37.520;2022-07-29T08:23:45;6.97;;;6.50;;
61204;SDS011;47068;55.780;37.520;2022-07-29T08:26:12;6.32;;;5.75;;
61204;SDS011;47068;55.780;37.520;2022-07-29T08:28:39;7.43;;;6.72;;
61204;SDS011;47068;55.780;37.520;2022-07-29T08:31:06;6.20;;;5.22;;
61204;SDS011;47068;55.780;37.520;2022-07-29T08:33:32;7.30;;;6.80;;
61204;SDS011;47068;55.780;37.520;2022-07-29T08:35:58;29.60;;;10.15;;
61204;SDS011;47068;55.780;37.520;2022-07-29T08:38:24;10.15;;;6.95;;
61204;SDS011;47068;55.780;37.520;2022-07-29T08:40:52;8.07;;;6.65;;
61204;SDS011;47068;55.780;37.520;2022-07-29T08:43:18;5.40;;;5.10;;
61204;SDS011;47068;55.780;37.520;2022-07-29T08:48:17;6.22;;;5.82;;
61204;SDS011;47068;55.780;37.520;2022-07-29T08:50:44;6.35;;;5.95;;
61204;SDS011;47068;55.780;37.520;2022-07-29T08:53:12;6.15;;;5.55;;
61204;SDS011;47068;55.780;37.520;2022-07-29T08:55:42;5.68;;;5.30;;
61204;SDS011;47068;55.780;37.520;2022-07-29T08:58:10;5.90;;;5.50;;
61204;SDS011;47068;55.780;37.520;2022-07-29T09:00:37;5.47;;;5.10;;
61204;SDS011;47068;55.780;37.520;2022-07-29T09:03:06;5.53;;;5.10;;
61204;SDS011;47068;55.780;37.520;2022-07-29T09:05:34;5.25;;;4.65;;
61204;SDS011;47068;55.780;37.520;2022-07-29T09:08:01;5.25;;;4.85;;
61204;SDS011;47068;55.780;37.520;2022-07-29T09:10:26;7.03;;;4.72;;
61204;SDS011;47068;55.780;37.520;2022-07-29T09:12:54;6.57;;;4.20;;
61204;SDS011;47068;55.780;37.520;2022-07-29T09:15:20;5.65;;;5.10;;
61204;SDS011;47068;55.780;37.520;2022-07-29T09:17:46;5.25;;;4.85;;
61204;SDS011;47068;55.780;37.520;2022-07-29T09:20:17;4.82;;;4.50;;
61204;SDS011;47068;55.780;37.520;2022-07-29T09:22:44;4.90;;;4.50;;
61204;SDS011;47068;55.780;37.520;2022-07-29T09:25:14;4.22;;;3.80;;
61204;SDS011;47068;55.780;37.520;2022-07-29T09:28:04;6.30;;;4.53;;
61204;SDS011;47068;55.780;37.520;2022-07-29T09:30:31;4.55;;;4.15;;
61204;SDS011;47068;55.780;37.520;2022-07-29T09:32:58;4.82;;;4.40;;
61204;SDS011;47068;55.780;37.520;2022-07-29T09:35:26;6.78;;;5.50;;
61204;SDS011;47068;55.780;37.520;2022-07-29T09:37:53;4.80;;;4.40;;
61204;SDS011;47068;55.780;37.520;2022-07-29T09:40:23;6.10;;;4.47;;
61204;SDS011;47068;55.780;37.520;2022-07-29T09:42:50;4.38;;;3.95;;
61204;SDS011;47068;55.780;37.520;2022-07-29T09:45:26;5.28;;;4.70;;
61204;SDS011;47068;55.780;37.520;2022-07-29T09:47:53;5.22;;;4.82;;
61204;SDS011;47068;55.780;37.520;2022-07-29T09:50:19;4.80;;;4.50;;
61204;SDS011;47068;55.780;37.520;2022-07-29T09:52:49;4.63;;;4.32;;
61204;SDS011;47068;55.780;37.520;2022-07-29T09:55:16;5.30;;;4.97;;
61204;SDS011;47068;55.780;37.520;2022-07-29T09:57:42;5.30;;;4.90;;
61204;SDS011;47068;55.780;37.520;2022-07-29T10:00:12;5.10;;;4.70;;
61204;SDS011;47068;55.780;37.520;2022-07-29T10:02:40;6.57;;;4.97;;
61204;SDS011;47068;55.780;37.520;2022-07-29T10:05:19;6.10;;;4.78;;
61204;SDS011;47068;55.780;37.520;2022-07-29T10:07:51;6.15;;;5.70;;
61204;SDS011;47068;55.780;37.520;2022-07-29T10:10:21;5.97;;;5.57;;
61204;SDS011;47068;55.780;37.520;2022-07-29T10:15:36;4.65;;;4.35;;
61204;SDS011;47068;55.780;37.520;2022-07-29T10:18:08;4.93;;;4.63;;
61204;SDS011;47068;55.780;37.520;2022-07-29T10:20:35;6.13;;;5.72;;
61204;SDS011;47068;55.780;37.520;2022-07-29T10:23:02;5.32;;;4.97;;
61204;SDS011;47068;55.780;37.520;2022-07-29T10:25:27;5.95;;;5.50;;
61204;SDS011;47068;55.780;37.520;2022-07-29T10:27:53;5.75;;;5.35;;
61204;SDS011;47068;55.780;37.520;2022-07-29T10:30:21;6.22;;;5.70;;
61204;SDS011;47068;55.780;37.520;2022-07-29T10:44:04;4.25;;;3.95;;
61204;SDS011;47068;55.780;37.520;2022-07-29T10:46:35;4.68;;;4.28;;
61204;SDS011;47068;55.780;37.520;2022-07-29T10:54:41;4.05;;;3.75;;
61204;SDS011;47068;55.780;37.520;2022-07-29T11:00:35;4.05;;;3.65;;
61204;SDS011;47068;55.780;37.520;2022-07-29T11:05:06;4.80;;;4.50;;
61204;SDS011;47068;55.780;37.520;2022-07-29T11:07:34;5.03;;;4.63;;
61204;SDS011;47068;55.780;37.520;2022-07-29T11:15:10;5.45;;;5.15;;
61204;SDS011;47068;55.780;37.520;2022-07-29T11:20:38;4.45;;;4.15;;
61204;SDS011;47068;55.780;37.520;2022-07-29T11:28:51;4.55;;;4.18;;
61204;SDS011;47068;55.780;37.520;2022-07-29T11:44:53;5.55;;;5.10;;
61204;SDS011;47068;55.780;37.520;2022-07-29T11:47:23;6.07;;;5.10;;
61204;SDS011;47068;55.780;37.520;2022-07-29T11:49:51;5.80;;;5.40;;
61204;SDS011;47068;55.780;37.520;2022-07-29T11:52:17;5.50;;;5.00;;
61204;SDS011;47068;55.780;37.520;2022-07-29T11:54:43;6.25;;;5.63;;
61204;SDS011;47068;55.780;37.520;2022-07-29T11:57:09;7.35;;;6.40;;
61204;SDS011;47068;55.780;37.520;2022-07-29T11:59:38;6.53;;;5.10;;
61204;SDS011;47068;55.780;37.520;2022-07-29T12:02:06;7.57;;;4.88;;
61204;SDS011;47068;55.780;37.520;2022-07-29T12:04:33;4.60;;;4.20;;
61204;SDS011;47068;55.780;37.520;2022-07-29T12:06:59;4.30;;;4.00;;
61204;SDS011;47068;55.780;37.520;2022-07-29T12:09:25;5.03;;;4.55;;
61204;SDS011;47068;55.780;37.520;2022-07-29T12:11:57;4.72;;;4.30;;
61204;SDS011;47068;55.780;37.520;2022-07-29T12:14:27;4.22;;;3.75;;
61204;SDS011;47068;55.780;37.520;2022-07-29T12:16:55;6.28;;;5.13;;
61204;SDS011;47068;55.780;37.520;2022-07-29T12:19:21;7.47;;;4.40;;
61204;SDS011;47068;55.780;37.520;2022-07-29T12:21:47;5.03;;;4.63;;
61204;SDS011;47068;55.780;37.520;2022-07-29T12:24:14;4.70;;;4.10;;
61204;SDS011;47068;55.780;37.520;2022-07-29T12:26:55;6.13;;;4.40;;
61204;SDS011;47068;55.780;37.520;2022-07-29T12:29:22;4.93;;;4.35;;
61204;SDS011;47068;55.780;37.520;2022-07-29T12:31:56;4.32;;;3.92;;
61204;SDS011;47068;55.780;37.520;2022-07-29T12:34:23;4.80;;;4.50;;
61204;SDS011;47068;55.780;37.520;2022-07-29T12:36:51;4.72;;;4.32;;
61204;SDS011;47068;55.780;37.520;2022-07-29T12:39:17;3.80;;;3.50;;
61204;SDS011;47068;55.780;37.520;2022-07-29T12:41:44;4.13;;;3.83;;
61204;SDS011;47068;55.780;37.520;2022-07-29T12:44:10;5.18;;;4.40;;
61204;SDS011;47068;55.780;37.520;2022-07-29T12:46:36;4.10;;;3.80;;
61204;SDS011;47068;55.780;37.520;2022-07-29T12:49:02;5.05;;;4.65;;
61204;SDS011;47068;55.780;37.520;2022-07-29T12:51:31;4.88;;;4.53;;
61204;SDS011;47068;55.780;37.520;2022-07-29T12:54:02;5.63;;;3.75;;
61204;SDS011;47068;55.780;37.520;2022-07-29T12:56:36;3.90;;;3.60;;
61204;SDS011;47068;55.780;37.520;2022-07-29T12:59:18;6.00;;;4.32;;
61204;SDS011;47068;55.780;37.520;2022-07-29T13:01:45;4.10;;;3.80;;
61204;SDS011;47068;55.780;37.520;2022-07-29T13:04:29;5.78;;;4.43;;
61204;SDS011;47068;55.780;37.520;2022-07-29T13:07:02;4.70;;;4.38;;
61204;SDS011;47068;55.780;37.520;2022-07-29T13:09:38;5.50;;;5.10;;
61204;SDS011;47068;55.780;37.520;2022-07-29T13:12:11;5.40;;;4.90;;
61204;SDS011;47068;55.780;37.520;2022-07-29T13:14:39;5.32;;;4.78;;
61204;SDS011;47068;55.780;37.520;2022-07-29T13:17:10;5.32;;;4.93;;
61204;SDS011;47068;55.780;37.520;2022-07-29T13:19:48;4.85;;;4.45;;
61204;SDS011;47068;55.780;37.520;2022-07-29T13:22:21;9.95;;;7.47;;
61204;SDS011;47068;55.780;37.520;2022-07-29T13:24:49;5.43;;;5.03;;
61204;SDS011;47068;55.780;37.520;2022-07-29T13:27:19;5.07;;;4.68;;
61204;SDS011;47068;55.780;37.520;2022-07-29T13:29:46;8.25;;;5.20;;
61204;SDS011;47068;55.780;37.520;2022-07-29T13:32:11;4.50;;;4.10;;
61204;SDS011;47068;55.780;37.520;2022-07-29T13:34:37;5.65;;;4.28;;
61204;SDS011;47068;55.780;37.520;2022-07-29T13:37:02;8.40;;;4.95;;
61204;SDS011;47068;55.780;37.520;2022-07-29T13:39:30;5.22;;;4.82;;
61204;SDS011;47068;55.780;37.520;2022-07-29T13:41:56;4.82;;;4.50;;
61204;SDS011;47068;55.780;37.520;2022-07-29T13:44:21;5.47;;;5.00;;
61204;SDS011;47068;55.780;37.520;2022-07-29T13:46:47;5.30;;;4.80;;
61204;SDS011;47068;55.780;37.520;2022-07-29T13:49:12;7.03;;;3.90;;
61204;SDS011;47068;55.780;37.520;2022-07-29T13:51:38;4.90;;;4.47;;
61204;SDS011;47068;55.780;37.520;2022-07-29T13:54:04;4.93;;;4.53;;
61204;SDS011;47068;55.780;37.520;2022-07-29T13:56:29;4.40;;;3.60;;
61204;SDS011;47068;55.780;37.520;2022-07-29T13:58:55;4.35;;;4.00;;
61204;SDS011;47068;55.780;37.520;2022-07-29T14:01:21;4.47;;;4.18;;
61204;SDS011;47068;55.780;37.520;2022-07-29T14:03:46;5.05;;;4.70;;
61204;SDS011;47068;55.780;37.520;2022-07-29T14:06:12;5.20;;;4.80;;
61204;SDS011;47068;55.780;37.520;2022-07-29T14:08:38;4.47;;;4.07;;
61204;SDS011;47068;55.780;37.520;2022-07-29T14:11:03;3.90;;;3.60;;
61204;SDS011;47068;55.780;37.520;2022-07-29T14:13:29;4.80;;;4.50;;
61204;SDS011;47068;55.780;37.520;2022-07-29T14:15:54;4.60;;;4.30;;
61204;SDS011;47068;55.780;37.520;2022-07-29T14:18:20;4.60;;;4.30;;
61204;SDS011;47068;55.780;37.520;2022-07-29T14:20:45;4.82;;;4.50;;
61204;SDS011;47068;55.780;37.520;2022-07-29T14:23:13;5.80;;;5.40;;
61204;SDS011;47068;55.780;37.520;2022-07-29T14:25:39;5.10;;;4.70;;
61204;SDS011;47068;55.780;37.520;2022-07-29T14:28:04;5.78;;;5.38;;
61204;SDS011;47068;55.780;37.520;2022-07-29T14:30:29;5.97;;;5.57;;
61204;SDS011;47068;55.780;37.520;2022-07-29T14:32:55;5.88;;;5.47;;
61204;SDS011;47068;55.780;37.520;2022-07-29T14:35:21;6.20;;;5.70;;
61204;SDS011;47068;55.780;37.520;2022-07-29T14:37:46;6.50;;;6.00;;
61204;SDS011;47068;55.780;37.520;2022-07-29T14:40:12;6.50;;;6.00;;
61204;SDS011;47068;55.780;37.520;2022-07-29T14:42:38;6.43;;;5.70;;
61204;SDS011;47068;55.780;37.520;2022-07-29T14:45:04;6.80;;;5.80;;
61204;SDS011;47068;55.780;37.520;2022-07-29T14:47:31;6.40;;;6.00;;
61204;SDS011;47068;55.780;37.520;2022-07-29T14:49:57;6.00;;;5.60;;
61204;SDS011;47068;55.780;37.520;2022-07-29T14:52:23;7.13;;;6.30;;
61204;SDS011;47068;55.780;37.520;2022-07-29T14:54:48;5.43;;;5.03;;
61204;SDS011;47068;55.780;37.520;2022-07-29T14:57:14;6.28;;;5.72;;
61204;SDS011;47068;55.780;37.520;2022-07-29T14:59:39;6.00;;;5.60;;
61204;SDS011;47068;55.780;37.520;2022-07-29T15:02:04;4.82;;;4.53;;
61204;SDS011;47068;55.780;37.520;2022-07-29T15:04:30;7.53;;;6.55;;
61204;SDS011;47068;55.780;37.520;2022-07-29T15:06:55;5.57;;;5.18;;
61204;SDS011;47068;55.780;37.520;2022-07-29T15:09:21;4.80;;;4.50;;
61204;SDS011;47068;55.780;37.520;2022-07-29T15:11:46;5.13;;;4.63;;
61204;SDS011;47068;55.780;37.520;2022-07-29T15:14:12;4.93;;;4.53;;
61204;SDS011;47068;55.780;37.520;2022-07-29T15:16:38;5.63;;;5.22;;
61204;SDS011;47068;55.780;37.520;2022-07-29T15:19:05;4.60;;;4.30;;
61204;SDS011;47068;55.780;37.520;2022-07-29T15:21:30;4.78;;;4.47;;
61204;SDS011;47068;55.780;37.520;2022-07-29T15:23:56;5.50;;;5.00;;
61204;SDS011;47068;55.780;37.520;2022-07-29T15:26:21;6.68;;;5.00;;
61204;SDS011;47068;55.780;37.520;2022-07-29T15:28:48;5.10;;;4.60;;
61204;SDS011;47068;55.780;37.520;2022-07-29T15:31:14;5.10;;;4.70;;
61204;SDS011;47068;55.780;37.520;2022-07-29T15:33:39;6.85;;;4.93;;
61204;SDS011;47068;55.780;37.520;2022-07-29T15:36:05;5.40;;;5.00;;
61204;SDS011;47068;55.780;37.520;2022-07-29T15:38:31;6.80;;;5.30;;
61204;SDS011;47068;55.780;37.520;2022-07-29T15:40:57;8.82;;;4.30;;
61204;SDS011;47068;55.780;37.520;2022-07-29T15:43:23;5.78;;;5.25;;
61204;SDS011;47068;55.780;37.520;2022-07-29T15:45:49;5.88;;;5.32;;
61204;SDS011;47068;55.780;37.520;2022-07-29T15:48:33;6.30;;;5.70;;
61204;SDS011;47068;55.780;37.520;2022-07-29T15:51:02;5.60;;;5.20;;
61204;SDS011;47068;55.780;37.520;2022-07-29T15:53:27;5.10;;;4.80;;
61204;SDS011;47068;55.780;37.520;2022-07-29T15:55:53;5.00;;;4.70;;
61204;SDS011;47068;55.780;37.520;2022-07-29T16:00:44;4.65;;;4.25;;
61204;SDS011;47068;55.780;37.520;2022-07-29T16:03:10;4.00;;;3.70;;
61204;SDS011;47068;55.780;37.520;2022-07-29T16:05:36;9.35;;;6.07;;
61204;SDS011;47068;55.780;37.520;2022-07-29T16:10:26;5.63;;;4.97;;